Time;durP1;ratioP1;P1;durP2;ratioP2;P2;SDS_P1;SDS_P2;PMS_P1;PMS_P2;Temp;Humidity;BMP_temperature;BMP_pressure;BME280_temperature;BME280_humidity;BME280_pressure;Samples;Min_cycle;Max_cycle;Signal;HPM_P1;HPM_P2
2021/01/03 00:00:24;;;;;;;13.53;7.37;;;2.50;99.90;;;;;;5097884;28;20459;-72
2021/01/03 00:02:51;;;;;;;10.50;4.33;;;2.50;99.90;;;;;;5095293;28;20225;-72
2021/01/03 00:05:23;;;;;;;12.77;8.40;;;2.50;99.90;;;;;;5076246;28;20456;-72
2021/01/03 00:07:49;;;;;;;10.27;5.47;;;2.40;99.90;;;;;;5109372;27;20457;-72
2021/01/03 00:10:15;;;;;;;8.33;5.03;;;2.40;99.90;;;;;;5079042;27;20464;-72
2021/01/03 00:12:41;;;;;;;7.47;4.63;;;2.40;99.90;;;;;;5080063;27;20292;-72
2021/01/03 00:15:11;;;;;;;13.97;5.83;;;2.40;99.90;;;;;;5086842;27;20795;-72
2021/01/03 00:17:38;;;;;;;3.47;2.47;;;2.40;99.90;;;;;;5087687;28;20217;-70
2021/01/03 00:20:10;;;;;;;3.27;3.00;;;2.40;99.90;;;;;;5082031;28;20463;-70
2021/01/03 00:22:35;;;;;;;3.30;2.10;;;2.40;99.90;;;;;;5087583;28;20451;-72
2021/01/03 00:25:01;;;;;;;13.87;5.77;;;2.40;99.90;;;;;;5090329;28;20523;-71
2021/01/03 00:27:27;;;;;;;7.77;5.23;;;2.40;99.90;;;;;;5092190;28;20281;-72
2021/01/03 00:29:53;;;;;;;8.67;4.87;;;2.40;99.90;;;;;;5076146;28;20229;-72
2021/01/03 00:32:19;;;;;;;10.03;4.73;;;2.40;99.90;;;;;;5093275;27;20256;-72
2021/01/03 00:34:44;;;;;;;9.47;5.47;;;2.40;99.90;;;;;;5058545;28;20251;-71
2021/01/03 00:37:10;;;;;;;6.40;4.03;;;2.40;99.90;;;;;;5076640;28;20454;-72
2021/01/03 00:39:36;;;;;;;4.80;2.80;;;2.40;99.90;;;;;;5074920;28;20234;-72
2021/01/03 00:42:02;;;;;;;6.87;3.77;;;2.40;99.90;;;;;;5069832;28;20214;-71
2021/01/03 00:44:28;;;;;;;10.03;3.40;;;2.40;99.90;;;;;;5096317;28;20293;-73
2021/01/03 00:46:53;;;;;;;6.93;4.33;;;2.40;99.90;;;;;;5075622;28;20544;-72
2021/01/03 00:49:19;;;;;;;7.97;3.77;;;2.40;99.90;;;;;;5084194;28;20229;-71
2021/01/03 00:51:45;;;;;;;6.70;3.77;;;2.40;99.90;;;;;;5074488;28;20214;-71
2021/01/03 00:54:10;;;;;;;10.47;6.37;;;2.40;99.90;;;;;;5076018;28;20213;-71
2021/01/03 00:56:36;;;;;;;11.57;5.73;;;2.40;99.90;;;;;;5085974;28;20214;-71
2021/01/03 00:59:02;;;;;;;9.87;7.17;;;2.40;99.90;;;;;;5074411;28;20709;-71
2021/01/03 01:01:27;;;;;;;9.80;5.47;;;2.40;99.90;;;;;;5079941;27;20227;-71
2021/01/03 01:03:53;;;;;;;4.57;2.57;;;2.40;99.90;;;;;;5077242;28;20214;-71
2021/01/03 01:06:19;;;;;;;5.97;3.33;;;2.40;99.90;;;;;;5102722;28;20224;-71
2021/01/03 01:08:46;;;;;;;7.67;5.03;;;2.40;99.90;;;;;;5109778;28;20214;-70
2021/01/03 01:11:12;;;;;;;9.20;5.20;;;2.40;99.90;;;;;;5069184;28;20221;-71
2021/01/03 01:13:37;;;;;;;9.70;5.17;;;2.40;99.90;;;;;;5062052;27;20494;-71
2021/01/03 01:16:07;;;;;;;9.27;5.00;;;2.40;99.90;;;;;;5112061;28;20256;-71
2021/01/03 01:18:33;;;;;;;9.73;4.63;;;2.40;99.90;;;;;;5104293;28;20218;-71
2021/01/03 01:20:59;;;;;;;7.87;4.13;;;2.40;99.90;;;;;;5075331;28;20444;-70
2021/01/03 01:23:24;;;;;;;4.77;2.80;;;2.50;99.90;;;;;;5092070;28;20459;-71
2021/01/03 01:25:50;;;;;;;6.00;4.00;;;2.50;99.90;;;;;;5074337;28;20218;-70
2021/01/03 01:28:16;;;;;;;11.10;4.87;;;2.50;99.90;;;;;;5077801;28;20230;-70
2021/01/03 01:30:41;;;;;;;8.90;5.57;;;2.50;99.90;;;;;;5043692;28;20225;-70
2021/01/03 01:33:08;;;;;;;4.03;3.40;;;2.40;99.90;;;;;;5053924;28;20240;-69
2021/01/03 01:35:34;;;;;;;12.13;5.90;;;2.50;99.90;;;;;;5092244;28;20215;-71
2021/01/03 01:38:01;;;;;;;5.70;3.93;;;2.50;99.90;;;;;;5075160;28;20456;-71
2021/01/03 01:40:32;;;;;;;8.77;5.00;;;2.50;99.90;;;;;;5069481;28;20444;-70
2021/01/03 01:42:58;;;;;;;9.63;4.93;;;2.40;99.90;;;;;;5090983;28;20526;-71
2021/01/03 01:45:34;;;;;;;5.37;3.03;;;2.40;99.90;;;;;;5111389;28;20545;-69
2021/01/03 01:48:32;;;;;;;7.03;4.47;;;2.40;99.90;;;;;;5094142;28;20536;-71
2021/01/03 01:51:04;;;;;;;9.57;4.93;;;2.40;99.90;;;;;;5086961;28;20524;-71
2021/01/03 01:54:03;;;;;;;9.10;4.33;;;2.40;99.90;;;;;;5090447;28;20465;-71
2021/01/03 01:56:32;;;;;;;9.40;4.97;;;2.40;99.90;;;;;;5074423;28;20527;-71
2021/01/03 01:59:15;;;;;;;6.00;4.67;;;2.50;99.90;;;;;;5082471;28;20419;-71
2021/01/03 02:02:05;;;;;;;12.43;5.73;;;2.50;99.90;;;;;;5075744;28;20448;-70
2021/01/03 02:04:48;;;;;;;8.03;4.93;;;2.50;99.90;;;;;;5109701;28;20463;-71
2021/01/03 02:07:23;;;;;;;5.87;3.33;;;2.50;99.90;;;;;;5095197;28;20463;-69
2021/01/03 02:09:54;;;;;;;12.30;4.97;;;2.50;99.90;;;;;;5070359;28;20483;-71
2021/01/03 02:12:29;;;;;;;2.57;1.90;;;2.50;99.90;;;;;;5106647;28;20925;-71
2021/01/03 02:14:55;;;;;;;3.00;2.63;;;2.50;99.90;;;;;;5076047;28;20461;-71
2021/01/03 02:17:21;;;;;;;8.40;4.07;;;2.50;99.90;;;;;;5074829;28;20455;-71
2021/01/03 02:19:49;;;;;;;5.47;3.50;;;2.50;99.90;;;;;;5040797;28;20512;-71
2021/01/03 02:22:23;;;;;;;7.20;3.50;;;2.50;99.90;;;;;;5091940;28;20454;-71
2021/01/03 02:25:08;;;;;;;7.53;5.53;;;2.50;99.90;;;;;;5094991;28;20491;-71
2021/01/03 02:28:05;;;;;;;7.10;4.50;;;2.60;99.90;;;;;;5094679;28;20488;-71
2021/01/03 02:30:31;;;;;;;5.10;3.80;;;2.50;99.90;;;;;;5068341;28;20456;-71
2021/01/03 02:33:29;;;;;;;3.63;2.60;;;2.50;99.90;;;;;;5077413;28;20462;-70
2021/01/03 02:36:00;;;;;;;6.80;3.37;;;2.60;99.90;;;;;;5092644;28;20229;-71
2021/01/03 02:38:28;;;;;;;8.90;4.87;;;2.60;99.90;;;;;;5063897;28;20980;-71
2021/01/03 02:40:54;;;;;;;9.87;4.40;;;2.60;99.90;;;;;;5088128;28;20523;-71
2021/01/03 02:43:20;;;;;;;9.97;5.40;;;2.50;99.90;;;;;;5094952;27;20452;-70
2021/01/03 02:46:21;;;;;;;7.40;3.97;;;2.50;99.90;;;;;;5082986;28;20470;-71
2021/01/03 02:48:47;;;;;;;8.07;4.03;;;2.50;99.90;;;;;;5063835;27;20680;-72
2021/01/03 02:51:13;;;;;;;3.10;2.00;;;2.50;99.90;;;;;;5062064;27;20490;-71
2021/01/03 02:53:38;;;;;;;3.73;3.17;;;2.50;99.90;;;;;;5077624;28;20314;-71
2021/01/03 02:56:04;;;;;;;5.47;3.87;;;2.50;99.90;;;;;;5064610;28;20328;-70
2021/01/03 02:58:30;;;;;;;9.50;5.77;;;2.50;99.90;;;;;;5064364;28;20326;-69
2021/01/03 03:00:55;;;;;;;9.70;6.10;;;2.50;99.90;;;;;;5088499;28;20271;-71
2021/01/03 03:03:21;;;;;;;8.80;5.17;;;2.50;99.90;;;;;;5076937;28;20222;-71
2021/01/03 03:05:47;;;;;;;4.70;3.83;;;2.50;99.90;;;;;;5076399;28;23683;-71
2021/01/03 03:08:12;;;;;;;5.03;3.80;;;2.60;99.90;;;;;;5094010;28;20211;-70
2021/01/03 03:10:38;;;;;;;6.23;4.03;;;2.50;99.90;;;;;;5055449;28;20281;-70
2021/01/03 03:13:04;;;;;;;7.10;5.20;;;2.50;99.90;;;;;;5072515;28;20211;-69
2021/01/03 03:15:33;;;;;;;7.07;5.03;;;2.50;99.90;;;;;;5083970;28;20242;-69
2021/01/03 03:18:00;;;;;;;12.70;5.43;;;2.60;99.90;;;;;;5076397;27;20716;-73
2021/01/03 03:20:26;;;;;;;8.27;3.93;;;2.60;99.90;;;;;;5095214;28;20498;-68
2021/01/03 03:22:52;;;;;;;6.10;3.50;;;2.60;99.90;;;;;;5090223;27;20869;-69
2021/01/03 03:25:20;;;;;;;4.00;2.57;;;2.60;99.90;;;;;;5093097;27;20230;-69
2021/01/03 03:27:46;;;;;;;5.23;4.17;;;2.60;99.90;;;;;;5074852;28;20551;-69
2021/01/03 03:30:15;;;;;;;11.40;5.63;;;2.60;99.90;;;;;;5083521;28;20660;-69
2021/01/03 03:32:41;;;;;;;5.97;5.00;;;2.50;99.90;;;;;;5113738;27;20241;-69
2021/01/03 03:35:09;;;;;;;8.20;2.63;;;2.50;99.90;;;;;;5114297;27;20493;-69
2021/01/03 03:37:34;;;;;;;4.93;3.73;;;2.60;99.90;;;;;;5096321;27;20222;-68
2021/01/03 03:40:01;;;;;;;2.90;2.30;;;2.50;99.90;;;;;;5078743;28;20467;-70
2021/01/03 03:42:30;;;;;;;8.07;3.60;;;2.50;99.90;;;;;;5071539;28;20233;-70
2021/01/03 03:44:57;;;;;;;5.37;3.07;;;2.50;99.90;;;;;;5088220;28;20460;-70
2021/01/03 03:47:25;;;;;;;3.50;2.97;;;2.50;99.90;;;;;;5069178;28;20439;-69
2021/01/03 03:50:03;;;;;;;6.40;4.43;;;2.50;99.90;;;;;;5042404;28;20515;-69
2021/01/03 03:52:29;;;;;;;4.17;3.70;;;2.50;99.90;;;;;;5076707;28;20556;-70
2021/01/03 03:54:55;;;;;;;7.50;3.37;;;2.50;99.90;;;;;;5074670;28;20517;-69
2021/01/03 03:57:20;;;;;;;8.40;5.47;;;2.50;99.90;;;;;;5074280;28;20222;-70
2021/01/03 03:59:46;;;;;;;4.37;2.97;;;2.50;99.90;;;;;;5092754;28;20222;-71
2021/01/03 04:02:11;;;;;;;10.90;6.10;;;2.50;99.90;;;;;;5060572;28;20210;-69
2021/01/03 04:04:37;;;;;;;5.40;3.50;;;2.50;99.90;;;;;;5076167;28;20675;-70
2021/01/03 04:07:04;;;;;;;9.30;3.10;;;2.50;99.90;;;;;;5076133;28;20211;-70
2021/01/03 04:09:29;;;;;;;3.20;2.77;;;2.50;99.90;;;;;;5074994;27;20791;-71
2021/01/03 04:11:55;;;;;;;6.23;3.40;;;2.50;99.90;;;;;;5054065;28;20516;-70
2021/01/03 04:14:23;;;;;;;7.00;5.57;;;2.50;99.90;;;;;;5076298;28;20245;-70
2021/01/03 04:16:54;;;;;;;6.67;4.20;;;2.50;99.90;;;;;;5059378;28;20269;-70
2021/01/03 04:19:20;;;;;;;8.40;5.07;;;2.50;99.90;;;;;;5076107;28;20443;-69
2021/01/03 04:21:54;;;;;;;8.57;4.30;;;2.50;99.90;;;;;;5075283;28;20494;-70
2021/01/03 04:24:20;;;;;;;6.90;4.50;;;2.50;99.90;;;;;;5075955;28;20463;-70
2021/01/03 04:26:53;;;;;;;6.83;4.23;;;2.60;99.90;;;;;;5062592;27;20459;-70
2021/01/03 04:29:19;;;;;;;3.53;2.67;;;2.50;99.90;;;;;;5064026;27;20241;-69
2021/01/03 04:31:45;;;;;;;8.07;4.43;;;2.60;99.90;;;;;;5078481;27;20482;-69
2021/01/03 04:34:11;;;;;;;4.20;3.70;;;2.50;99.90;;;;;;5092210;28;20216;-69
2021/01/03 04:36:37;;;;;;;7.03;5.13;;;2.50;99.90;;;;;;5092428;28;20558;-70
2021/01/03 04:39:04;;;;;;;6.77;4.83;;;2.60;99.90;;;;;;5057876;27;20522;-70
2021/01/03 04:41:36;;;;;;;3.67;2.53;;;2.50;99.90;;;;;;5074459;27;20293;-71
2021/01/03 04:44:07;;;;;;;6.47;4.23;;;2.50;99.90;;;;;;5094277;28;20446;-70
2021/01/03 04:46:37;;;;;;;2.90;1.97;;;2.60;99.90;;;;;;5068152;28;20475;-70
2021/01/03 04:49:06;;;;;;;3.90;2.87;;;2.60;99.90;;;;;;5062321;28;20449;-69
2021/01/03 04:52:03;;;;;;;5.83;3.57;;;2.60;99.90;;;;;;5089517;28;20468;-70
2021/01/03 04:54:33;;;;;;;5.53;1.13;;;2.60;99.90;;;;;;5071309;28;20463;-69
2021/01/03 04:56:58;;;;;;;6.47;4.20;;;2.60;99.90;;;;;;5073800;28;20788;-70
2021/01/03 04:59:28;;;;;;;6.83;3.97;;;2.50;99.90;;;;;;5058901;28;20961;-70
2021/01/03 05:02:22;;;;;;;4.10;2.67;;;2.50;99.90;;;;;;5075376;28;20727;-70
2021/01/03 05:05:06;;;;;;;7.63;5.10;;;2.50;99.90;;;;;;5110103;27;20456;-70
2021/01/03 05:07:36;;;;;;;6.10;4.77;;;2.50;99.90;;;;;;5089357;28;20987;-70
2021/01/03 05:10:25;;;;;;;9.43;5.40;;;2.60;99.90;;;;;;5086454;28;20464;-70
2021/01/03 05:13:04;;;;;;;4.43;3.80;;;2.60;99.90;;;;;;5057856;28;20452;-70
2021/01/03 05:15:48;;;;;;;3.60;2.07;;;2.60;99.90;;;;;;5070612;28;20485;-70
2021/01/03 05:18:15;;;;;;;7.83;4.00;;;2.60;99.90;;;;;;5070605;28;20483;-70
2021/01/03 05:20:41;;;;;;;7.63;4.23;;;2.60;99.90;;;;;;5066121;28;20460;-69
2021/01/03 05:23:16;;;;;;;9.77;4.90;;;2.60;99.90;;;;;;5063413;28;20447;-70
2021/01/03 05:25:43;;;;;;;3.90;2.13;;;2.60;99.90;;;;;;5100767;28;20543;-70
2021/01/03 05:28:23;;;;;;;1.43;1.20;;;2.60;99.90;;;;;;5067518;28;20463;-69
2021/01/03 05:30:49;;;;;;;4.03;3.60;;;2.60;99.90;;;;;;5071630;28;20461;-69
2021/01/03 05:33:24;;;;;;;5.93;3.60;;;2.60;99.90;;;;;;5054739;28;20543;-69
2021/01/03 05:35:50;;;;;;;4.97;3.50;;;2.50;99.90;;;;;;5078733;28;20451;-70
2021/01/03 05:38:40;;;;;;;5.60;3.73;;;2.60;99.90;;;;;;5068081;28;20473;-71
2021/01/03 05:41:34;;;;;;;8.73;4.67;;;2.60;99.90;;;;;;5087349;28;20456;-70
2021/01/03 05:44:30;;;;;;;6.53;3.90;;;2.60;99.90;;;;;;5057504;28;20519;-69
2021/01/03 05:47:15;;;;;;;6.37;3.23;;;2.60;99.90;;;;;;5085879;28;20531;-69
2021/01/03 05:49:41;;;;;;;5.07;3.37;;;2.60;99.90;;;;;;5084548;28;20467;-69
2021/01/03 05:52:21;;;;;;;4.00;3.00;;;2.60;99.90;;;;;;5106110;28;20443;-70
2021/01/03 05:54:47;;;;;;;5.57;4.40;;;2.60;99.90;;;;;;5077866;28;20231;-69
2021/01/03 05:57:27;;;;;;;6.90;4.50;;;2.70;99.90;;;;;;5077886;28;20451;-69
2021/01/03 05:59:53;;;;;;;7.37;4.20;;;2.60;99.90;;;;;;5075487;28;21097;-71
2021/01/03 06:02:28;;;;;;;5.93;4.27;;;2.60;99.90;;;;;;5066513;28;20459;-70
2021/01/03 06:05:08;;;;;;;5.70;3.70;;;2.60;99.90;;;;;;5074696;28;20524;-69
2021/01/03 06:07:35;;;;;;;4.97;3.10;;;2.60;99.90;;;;;;5077397;28;20460;-69
2021/01/03 06:10:02;;;;;;;8.23;3.77;;;2.60;99.90;;;;;;5078771;28;20474;-70
2021/01/03 06:12:32;;;;;;;6.30;4.53;;;2.70;99.90;;;;;;5073529;28;20478;-70
2021/01/03 06:15:05;;;;;;;5.07;4.47;;;2.60;99.90;;;;;;5078404;28;20475;-70
2021/01/03 06:17:38;;;;;;;6.03;4.67;;;2.60;99.90;;;;;;5095163;28;20463;-70
2021/01/03 06:20:27;;;;;;;4.03;3.30;;;2.70;99.90;;;;;;5078378;28;21035;-70
2021/01/03 06:23:06;;;;;;;3.87;2.50;;;2.60;99.90;;;;;;5074176;28;20436;-70
2021/01/03 06:25:56;;;;;;;6.90;3.67;;;2.60;99.90;;;;;;5095500;27;20530;-70
2021/01/03 06:28:22;;;;;;;4.67;3.47;;;2.60;99.90;;;;;;5078344;28;20464;-70
2021/01/03 06:31:13;;;;;;;2.90;2.50;;;2.60;99.90;;;;;;5094559;28;20443;-70
2021/01/03 06:33:44;;;;;;;3.07;2.13;;;2.60;99.90;;;;;;5092955;28;20694;-70
2021/01/03 06:36:18;;;;;;;4.73;3.53;;;2.60;99.90;;;;;;5074682;28;20468;-70
2021/01/03 06:39:21;;;;;;;5.50;2.70;;;2.60;99.90;;;;;;5100904;27;20469;-70
2021/01/03 06:41:51;;;;;;;4.63;3.43;;;2.60;99.90;;;;;;5081494;28;20503;-70
2021/01/03 06:44:46;;;;;;;5.30;2.87;;;2.60;99.90;;;;;;5069055;27;20494;-70
2021/01/03 06:47:33;;;;;;;5.07;3.67;;;2.60;99.90;;;;;;5079267;27;20463;-70
2021/01/03 06:50:27;;;;;;;9.60;4.20;;;2.60;99.90;;;;;;5114495;27;20455;-69
2021/01/03 06:52:56;;;;;;;2.30;1.80;;;2.60;99.90;;;;;;5133192;27;20451;-70
2021/01/03 06:55:47;;;;;;;2.30;2.00;;;2.60;99.90;;;;;;5097982;27;20483;-69
2021/01/03 06:58:42;;;;;;;5.57;4.30;;;2.60;99.90;;;;;;5050499;28;20458;-70
2021/01/03 07:01:21;;;;;;;3.70;2.13;;;2.60;99.90;;;;;;5074109;28;20543;-70
2021/01/03 07:03:50;;;;;;;4.67;4.17;;;2.60;99.90;;;;;;5066516;28;20468;-70
2021/01/03 07:06:16;;;;;;;7.37;5.50;;;2.60;99.90;;;;;;5092469;28;20461;-70
2021/01/03 07:08:51;;;;;;;4.53;2.97;;;2.60;99.90;;;;;;5098404;28;20444;-71
2021/01/03 07:11:58;;;;;;;5.27;4.10;;;2.60;99.90;;;;;;5069450;28;20529;-70
2021/01/03 07:14:24;;;;;;;2.57;2.07;;;2.60;99.90;;;;;;5042033;28;20869;-70
2021/01/03 07:16:56;;;;;;;2.97;2.10;;;2.60;99.90;;;;;;5014901;28;20439;-70
2021/01/03 07:19:31;;;;;;;2.23;2.03;;;2.60;99.90;;;;;;5052910;28;20264;-70
2021/01/03 07:22:02;;;;;;;7.43;4.03;;;2.60;99.90;;;;;;5071626;28;21054;-70
2021/01/03 07:24:37;;;;;;;3.73;1.57;;;2.60;99.90;;;;;;5093670;28;20486;-69
2021/01/03 07:27:33;;;;;;;3.73;3.30;;;2.60;99.90;;;;;;5111989;28;20458;-69
2021/01/03 07:30:04;;;;;;;4.63;3.23;;;2.60;99.90;;;;;;5106291;28;20460;-70
2021/01/03 07:32:36;;;;;;;5.03;3.53;;;2.60;99.90;;;;;;5076685;28;20538;-70
2021/01/03 07:35:05;;;;;;;9.27;5.67;;;2.60;99.90;;;;;;5077463;28;20480;-70
2021/01/03 07:37:34;;;;;;;5.57;3.33;;;2.50;99.90;;;;;;5094324;28;20456;-70
2021/01/03 07:40:09;;;;;;;5.90;4.07;;;2.60;99.90;;;;;;5077233;28;20805;-70
2021/01/03 07:42:55;;;;;;;6.63;4.07;;;2.60;99.90;;;;;;5099929;28;20476;-70
2021/01/03 07:45:45;;;;;;;7.40;5.40;;;2.60;99.90;;;;;;5113114;27;20471;-70
2021/01/03 07:48:40;;;;;;;9.63;5.50;;;2.60;99.90;;;;;;5093677;27;21014;-70
2021/01/03 07:51:11;;;;;;;7.40;4.47;;;2.60;99.90;;;;;;5074897;28;21014;-70
2021/01/03 07:53:39;;;;;;;3.37;2.93;;;2.60;99.90;;;;;;5076094;28;20962;-70
2021/01/03 07:56:19;;;;;;;4.40;3.70;;;2.60;99.90;;;;;;5092494;28;20510;-70
2021/01/03 07:58:51;;;;;;;6.27;3.70;;;2.60;99.90;;;;;;5110954;28;20539;-70
2021/01/03 08:01:19;;;;;;;5.23;4.17;;;2.60;99.90;;;;;;5076708;28;20460;-69
2021/01/03 08:03:45;;;;;;;5.70;4.30;;;2.60;99.90;;;;;;5059858;28;20456;-69
2021/01/03 08:06:11;;;;;;;6.10;3.87;;;2.60;99.90;;;;;;5074060;28;20470;-70
2021/01/03 08:08:38;;;;;;;5.43;3.57;;;2.60;99.90;;;;;;5090296;28;20629;-69
2021/01/03 08:11:25;;;;;;;6.83;4.27;;;2.60;99.90;;;;;;5074514;28;20456;-71
2021/01/03 08:13:56;;;;;;;8.57;4.37;;;2.70;99.90;;;;;;5092695;28;20448;-70
2021/01/03 08:16:24;;;;;;;6.30;3.97;;;2.60;99.90;;;;;;5087912;28;20490;-69
2021/01/03 08:19:05;;;;;;;6.97;4.23;;;2.60;99.90;;;;;;5071952;28;20462;-69
2021/01/03 08:21:33;;;;;;;4.90;3.20;;;2.60;99.90;;;;;;5094186;27;20475;-70
2021/01/03 08:24:18;;;;;;;6.37;3.23;;;2.60;99.90;;;;;;5076118;28;20478;-70
2021/01/03 08:26:52;;;;;;;10.83;3.93;;;2.60;99.90;;;;;;5075016;28;20456;-70
2021/01/03 08:29:32;;;;;;;7.37;4.17;;;2.60;99.90;;;;;;5091448;28;21272;-70
2021/01/03 08:32:03;;;;;;;3.63;1.70;;;2.70;99.90;;;;;;5091351;28;20452;-69
2021/01/03 08:34:36;;;;;;;4.80;3.90;;;2.60;99.90;;;;;;5091704;28;20464;-70
2021/01/03 08:37:22;;;;;;;3.33;2.87;;;2.60;99.90;;;;;;5073710;28;20463;-70
2021/01/03 08:39:49;;;;;;;4.43;2.77;;;2.70;99.90;;;;;;5100744;27;20448;-70
2021/01/03 08:42:29;;;;;;;3.70;2.60;;;2.60;99.90;;;;;;5112658;27;20609;-70
2021/01/03 08:44:57;;;;;;;6.87;4.43;;;2.60;99.90;;;;;;5062949;28;20457;-70
2021/01/03 08:47:38;;;;;;;5.70;3.27;;;2.70;99.90;;;;;;5072062;28;20459;-70
2021/01/03 08:50:26;;;;;;;6.37;3.27;;;2.70;99.90;;;;;;5062683;28;21178;-70
2021/01/03 08:53:04;;;;;;;7.23;4.17;;;2.70;99.90;;;;;;5079382;28;20442;-70
2021/01/03 08:55:36;;;;;;;3.70;2.47;;;2.60;99.90;;;;;;5054732;28;20472;-71
2021/01/03 08:58:07;;;;;;;4.03;2.97;;;2.70;99.90;;;;;;5071185;28;20460;-71
2021/01/03 09:00:36;;;;;;;8.57;6.23;;;2.70;99.90;;;;;;5101641;27;20546;-69
2021/01/03 09:03:03;;;;;;;2.90;2.57;;;2.70;99.90;;;;;;5090063;28;20458;-70
2021/01/03 09:05:33;;;;;;;5.23;4.00;;;2.70;99.90;;;;;;5070906;28;20461;-70
2021/01/03 09:08:01;;;;;;;5.33;3.90;;;2.70;99.90;;;;;;5071492;28;20456;-70
2021/01/03 09:10:40;;;;;;;8.53;4.63;;;2.70;99.90;;;;;;5084841;28;20492;-69
2021/01/03 09:13:23;;;;;;;3.43;2.73;;;2.70;99.90;;;;;;5055249;28;20484;-70
2021/01/03 09:16:33;;;;;;;7.90;4.77;;;2.70;99.90;;;;;;5080655;28;20459;-70
2021/01/03 09:19:13;;;;;;;5.50;4.20;;;2.80;99.90;;;;;;5095244;28;20444;-70
2021/01/03 09:21:51;;;;;;;4.43;3.07;;;2.80;99.90;;;;;;5090907;28;20573;-69
2021/01/03 09:24:43;;;;;;;1.60;1.50;;;2.80;99.90;;;;;;5075653;28;20505;-70
2021/01/03 09:27:10;;;;;;;5.43;3.83;;;2.80;99.90;;;;;;5099455;28;20448;-70
2021/01/03 09:29:39;;;;;;;5.57;3.93;;;2.80;99.90;;;;;;5106165;28;20472;-70
2021/01/03 09:32:10;;;;;;;6.73;3.80;;;2.80;99.90;;;;;;5112416;28;20458;-70
2021/01/03 09:34:44;;;;;;;8.53;3.40;;;2.80;99.90;;;;;;5078672;28;20460;-70
2021/01/03 09:37:25;;;;;;;9.70;5.90;;;2.80;99.90;;;;;;5131509;27;20451;-70
2021/01/03 09:40:08;;;;;;;10.13;4.60;;;2.90;99.90;;;;;;5112543;27;20550;-69
2021/01/03 09:42:40;;;;;;;8.33;5.00;;;2.90;99.90;;;;;;5081461;28;20478;-70
2021/01/03 09:45:27;;;;;;;6.10;5.00;;;2.90;99.90;;;;;;5110361;28;20964;-70
2021/01/03 09:47:53;;;;;;;9.77;5.80;;;2.90;99.90;;;;;;5098341;28;20500;-70
2021/01/03 09:50:45;;;;;;;5.70;3.87;;;3.00;99.90;;;;;;5063169;27;20483;-70
2021/01/03 09:53:20;;;;;;;9.07;4.70;;;3.00;99.90;;;;;;5096433;28;20214;-69
2021/01/03 09:56:31;;;;;;;9.50;6.10;;;3.00;99.90;;;;;;5098049;28;20471;-71
2021/01/03 09:58:57;;;;;;;10.07;6.10;;;3.00;99.90;;;;;;5078352;27;20459;-70
2021/01/03 10:01:32;;;;;;;12.20;8.43;;;3.00;99.90;;;;;;5096727;27;20613;-69
2021/01/03 10:04:25;;;;;;;112.70;67.70;;;3.00;99.90;;;;;;5075097;28;20219;-71
2021/01/03 10:06:55;;;;;;;9.90;6.60;;;3.00;99.90;;;;;;5093929;28;20849;-70
2021/01/03 10:09:23;;;;;;;22.53;12.90;;;3.00;99.90;;;;;;5112391;28;20452;-69
2021/01/03 10:11:50;;;;;;;12.57;6.53;;;3.00;99.90;;;;;;5083093;28;20445;-69
2021/01/03 10:14:32;;;;;;;10.73;6.03;;;3.00;99.90;;;;;;5096653;28;21044;-70
2021/01/03 10:17:19;;;;;;;12.70;6.50;;;3.10;99.90;;;;;;5074303;28;20466;-70
2021/01/03 10:19:45;;;;;;;11.30;6.73;;;3.10;99.90;;;;;;5107010;28;20542;-69
2021/01/03 10:22:40;;;;;;;9.40;5.17;;;3.10;99.90;;;;;;5097971;28;20451;-69
2021/01/03 10:25:10;;;;;;;10.93;4.40;;;3.10;99.90;;;;;;5072425;28;20573;-69
2021/01/03 10:27:36;;;;;;;7.77;4.70;;;3.10;99.90;;;;;;5096479;28;20481;-70
2021/01/03 10:30:06;;;;;;;6.40;4.17;;;3.10;99.90;;;;;;5097906;28;20903;-69
2021/01/03 10:32:31;;;;;;;9.70;5.30;;;3.20;99.90;;;;;;5087426;28;20460;-70
2021/01/03 10:34:57;;;;;;;9.33;5.80;;;3.10;99.90;;;;;;5082007;28;20523;-72
2021/01/03 10:37:23;;;;;;;8.03;5.20;;;3.10;99.90;;;;;;5097261;27;20245;-70
2021/01/03 10:39:48;;;;;;;8.17;4.83;;;3.20;99.90;;;;;;5099718;27;20761;-69
2021/01/03 10:42:14;;;;;;;7.03;3.57;;;3.20;99.90;;;;;;5102875;27;20588;-69
2021/01/03 10:44:40;;;;;;;7.27;4.57;;;3.20;99.90;;;;;;5086352;28;20239;-69
2021/01/03 10:47:05;;;;;;;9.43;5.60;;;3.20;99.90;;;;;;5043306;28;20224;-69
2021/01/03 10:49:31;;;;;;;6.50;4.80;;;3.20;99.90;;;;;;5085268;27;20217;-70
2021/01/03 10:51:57;;;;;;;6.30;3.90;;;3.20;99.90;;;;;;5073611;28;20217;-69
2021/01/03 10:54:26;;;;;;;9.00;6.00;;;3.20;99.90;;;;;;5075443;28;20227;-69
2021/01/03 10:56:54;;;;;;;7.97;5.50;;;3.20;99.90;;;;;;5069646;28;20222;-69
2021/01/03 10:59:20;;;;;;;11.00;5.67;;;3.20;99.90;;;;;;5096895;27;20533;-70
2021/01/03 11:01:46;;;;;;;9.23;5.37;;;3.20;99.90;;;;;;5075495;28;20453;-69
2021/01/03 11:04:16;;;;;;;11.20;5.40;;;3.20;99.90;;;;;;5060510;28;20448;-69
2021/01/03 11:06:44;;;;;;;6.43;3.73;;;3.30;99.90;;;;;;5093156;28;20448;-70
2021/01/03 11:09:18;;;;;;;7.77;4.87;;;3.30;99.90;;;;;;5092876;28;20464;-69
2021/01/03 11:11:43;;;;;;;10.17;5.53;;;3.30;99.90;;;;;;5091662;28;20972;-70
2021/01/03 11:14:09;;;;;;;9.30;5.23;;;3.30;99.90;;;;;;5072288;28;20441;-69
2021/01/03 11:16:38;;;;;;;10.10;5.13;;;3.30;99.90;;;;;;5072446;28;20705;-69
2021/01/03 11:19:06;;;;;;;9.47;5.37;;;3.30;99.90;;;;;;5059334;28;20260;-69
2021/01/03 11:21:32;;;;;;;14.50;6.50;;;3.40;99.90;;;;;;5075682;28;20839;-69
2021/01/03 11:23:57;;;;;;;9.93;6.77;;;3.30;99.90;;;;;;5085365;27;20526;-69
2021/01/03 11:26:43;;;;;;;4.97;2.70;;;3.40;99.90;;;;;;5122350;27;20304;-69
2021/01/03 11:29:12;;;;;;;9.53;6.00;;;3.40;99.90;;;;;;5079414;28;20222;-71
2021/01/03 11:31:43;;;;;;;8.80;5.87;;;3.40;99.90;;;;;;5082073;28;20466;-71
2021/01/03 11:34:13;;;;;;;13.73;5.77;;;3.40;99.90;;;;;;5081730;27;20459;-68
2021/01/03 11:36:51;;;;;;;8.30;5.20;;;3.40;99.90;;;;;;5091463;28;20468;-71
2021/01/03 11:39:18;;;;;;;9.43;6.17;;;3.40;99.90;;;;;;5075053;27;20448;-70
2021/01/03 11:41:49;;;;;;;9.57;5.80;;;3.40;99.90;;;;;;5069232;28;20460;-71
2021/01/03 11:44:15;;;;;;;5.70;4.17;;;3.40;99.90;;;;;;5094148;27;20970;-72
2021/01/03 11:46:42;;;;;;;11.00;4.87;;;3.40;99.90;;;;;;5108697;28;20456;-69
2021/01/03 11:49:08;;;;;;;10.63;4.43;;;3.40;99.90;;;;;;5101684;27;20459;-72
2021/01/03 11:51:39;;;;;;;5.80;2.80;;;3.40;99.90;;;;;;5077131;28;20460;-69
2021/01/03 11:54:05;;;;;;;11.13;5.73;;;3.50;99.90;;;;;;5043024;28;20690;-69
2021/01/03 11:56:31;;;;;;;12.13;5.40;;;3.40;99.90;;;;;;5053094;28;20541;-71
2021/01/03 11:58:57;;;;;;;8.27;5.20;;;3.40;99.90;;;;;;5088118;28;20351;-68
2021/01/03 12:01:24;;;;;;;6.63;4.60;;;3.40;99.90;;;;;;5055168;27;20575;-68
2021/01/03 12:03:51;;;;;;;10.57;5.97;;;3.40;99.90;;;;;;5074722;28;20960;-68
2021/01/03 12:06:19;;;;;;;6.37;4.80;;;3.40;99.90;;;;;;5070121;28;20498;-70
2021/01/03 12:08:46;;;;;;;9.97;4.60;;;3.40;99.90;;;;;;5088856;27;20474;-68
2021/01/03 12:11:20;;;;;;;7.80;4.90;;;3.40;99.90;;;;;;5082044;28;20871;-71
2021/01/03 12:13:54;;;;;;;10.33;4.80;;;3.50;99.90;;;;;;5064016;28;20461;-70
2021/01/03 12:16:22;;;;;;;10.57;5.43;;;3.50;99.90;;;;;;5086269;28;20460;-70
2021/01/03 12:18:48;;;;;;;4.43;2.57;;;3.40;99.90;;;;;;5068665;28;20460;-69
2021/01/03 12:21:32;;;;;;;6.13;3.90;;;3.40;99.90;;;;;;5085817;28;20512;-69
2021/01/03 12:23:59;;;;;;;5.07;3.20;;;3.40;99.90;;;;;;5087858;28;20895;-68
2021/01/03 12:26:34;;;;;;;5.10;3.83;;;3.40;99.90;;;;;;5083593;28;20453;-68
2021/01/03 12:29:00;;;;;;;3.83;2.63;;;3.50;99.90;;;;;;5086624;28;21042;-70
2021/01/03 12:31:35;;;;;;;6.67;2.83;;;3.50;99.90;;;;;;5052919;27;20461;-72
2021/01/03 12:34:01;;;;;;;6.40;3.37;;;3.40;99.90;;;;;;5106634;28;20209;-69
2021/01/03 12:36:27;;;;;;;8.97;3.97;;;3.50;99.90;;;;;;5084552;28;20529;-72
2021/01/03 12:38:53;;;;;;;8.40;3.97;;;3.50;99.90;;;;;;5082185;28;20291;-69
2021/01/03 12:41:24;;;;;;;6.60;4.37;;;3.50;99.90;;;;;;5087736;28;20242;-69
2021/01/03 12:43:50;;;;;;;10.73;6.00;;;3.50;99.90;;;;;;5077590;28;20226;-70
2021/01/03 12:46:32;;;;;;;10.60;4.60;;;3.50;99.90;;;;;;5056826;28;20555;-71
2021/01/03 12:48:58;;;;;;;5.70;4.07;;;3.50;99.90;;;;;;5090649;28;20955;-70
2021/01/03 12:51:24;;;;;;;2.23;2.00;;;3.40;99.90;;;;;;5073805;28;20462;-70
2021/01/03 12:53:50;;;;;;;4.10;2.50;;;3.40;99.90;;;;;;5089115;28;20442;-70
2021/01/03 12:56:17;;;;;;;6.30;3.70;;;3.40;99.90;;;;;;5065821;28;20459;-69
2021/01/03 12:59:00;;;;;;;6.30;4.17;;;3.40;99.90;;;;;;5090258;27;20479;-71
2021/01/03 13:01:29;;;;;;;9.60;3.87;;;3.40;99.90;;;;;;5080934;27;20452;-69
2021/01/03 13:04:02;;;;;;;2.43;1.60;;;3.50;99.90;;;;;;5075203;27;20462;-71
2021/01/03 13:06:28;;;;;;;4.70;3.13;;;3.40;99.90;;;;;;5086899;28;20835;-70
2021/01/03 13:08:54;;;;;;;3.97;3.10;;;3.40;99.90;;;;;;5077901;28;20532;-70
2021/01/03 13:11:20;;;;;;;4.80;2.80;;;3.40;99.90;;;;;;5083478;28;20591;-71
2021/01/03 13:13:46;;;;;;;5.77;3.97;;;3.50;99.90;;;;;;5077542;27;20226;-71
2021/01/03 13:16:12;;;;;;;6.63;4.40;;;3.50;99.90;;;;;;5087327;28;20457;-71
2021/01/03 13:18:38;;;;;;;7.13;4.07;;;3.50;99.90;;;;;;5104835;28;20467;-71
2021/01/03 13:21:06;;;;;;;9.63;5.27;;;3.50;99.90;;;;;;5104702;27;20455;-70